Time;durP1;ratioP1;P1;durP2;ratioP2;P2;SDS_P1;SDS_P2;PMS_P1;PMS_P2;Temp;Humidity;BMP_temperature;BMP_pressure;BME280_temperature;BME280_humidity;BME280_pressure;Samples;Min_cycle;Max_cycle;Signal;HPM_P1;HPM_P2
2022/12/11 00:02:06;;;;;;;3.00;2.80;;;2.90;99.90;;;;;;4918373;29;20210;-62
2022/12/11 00:04:33;;;;;;;3.00;2.80;;;3.00;99.90;;;;;;4922814;29;20204;-62
2022/12/11 00:07:00;;;;;;;3.27;3.07;;;3.00;99.90;;;;;;4923875;28;20359;-62
2022/12/11 00:09:26;;;;;;;3.17;2.97;;;2.90;99.90;;;;;;4927361;28;20672;-62
2022/12/11 00:11:53;;;;;;;3.30;3.10;;;2.90;99.90;;;;;;4928912;28;20295;-62
2022/12/11 00:14:21;;;;;;;3.27;3.07;;;2.90;99.90;;;;;;4925340;28;20212;-63
2022/12/11 00:16:48;;;;;;;3.27;3.07;;;2.90;99.90;;;;;;4930849;29;20232;-62
2022/12/11 00:19:17;;;;;;;3.10;2.90;;;2.90;99.90;;;;;;4939884;29;20208;-63
2022/12/11 00:21:44;;;;;;;3.73;3.53;;;2.70;99.90;;;;;;4938941;29;20212;-62
2022/12/11 00:24:12;;;;;;;3.50;3.30;;;2.60;99.90;;;;;;4938030;28;20216;-62
2022/12/11 00:26:39;;;;;;;4.23;4.03;;;2.60;99.90;;;;;;4933232;29;20224;-61
2022/12/11 00:29:07;;;;;;;4.70;4.40;;;2.50;99.90;;;;;;4928790;29;20577;-63
2022/12/11 00:31:33;;;;;;;4.38;4.03;;;2.50;99.90;;;;;;4929731;29;20204;-63
2022/12/11 00:34:02;;;;;;;4.20;4.00;;;2.50;99.90;;;;;;4928432;29;20227;-61
2022/12/11 00:36:30;;;;;;;4.80;4.50;;;2.50;99.90;;;;;;4928832;29;20888;-63
2022/12/11 00:38:57;;;;;;;4.90;4.60;;;2.40;99.90;;;;;;4928615;29;20220;-63
2022/12/11 00:41:23;;;;;;;5.17;4.87;;;2.30;99.90;;;;;;4922776;28;20230;-62
2022/12/11 00:43:51;;;;;;;4.37;4.17;;;2.30;99.90;;;;;;4928541;28;20295;-62
2022/12/11 00:46:18;;;;;;;4.70;4.40;;;2.30;99.90;;;;;;4929411;28;20232;-62
2022/12/11 00:48:47;;;;;;;5.20;4.90;;;2.30;99.90;;;;;;4929958;29;20232;-62
2022/12/11 00:51:14;;;;;;;5.03;4.73;;;2.30;99.90;;;;;;4926899;28;20323;-63
2022/12/11 00:53:42;;;;;;;5.37;5.03;;;2.30;99.90;;;;;;4928932;28;20208;-61
2022/12/11 00:56:13;;;;;;;5.30;5.00;;;2.20;99.90;;;;;;4930795;29;20718;-62
2022/12/11 00:58:40;;;;;;;5.07;4.78;;;2.10;99.90;;;;;;4931218;29;20197;-61
2022/12/11 01:01:09;;;;;;;5.13;4.83;;;2.00;99.90;;;;;;4931529;29;20679;-61
2022/12/11 01:03:36;;;;;;;5.53;5.22;;;1.90;99.90;;;;;;4931285;28;20227;-62
2022/12/11 01:06:05;;;;;;;5.17;4.87;;;1.80;99.90;;;;;;4931998;28;20204;-62
2022/12/11 01:08:32;;;;;;;5.37;5.07;;;1.80;99.90;;;;;;4931990;29;20232;-63
2022/12/11 01:11:04;;;;;;;5.27;4.97;;;1.80;99.90;;;;;;4931977;28;20292;-62
2022/12/11 01:13:31;;;;;;;4.80;4.50;;;1.80;99.90;;;;;;4927391;28;20239;-63
2022/12/11 01:15:57;;;;;;;5.07;4.77;;;1.70;99.90;;;;;;4931517;28;20222;-63
2022/12/11 01:18:25;;;;;;;5.30;4.90;;;1.70;99.90;;;;;;4932360;29;20207;-62
2022/12/11 01:20:52;;;;;;;5.10;4.80;;;1.70;99.90;;;;;;4927306;29;20296;-62
2022/12/11 01:23:19;;;;;;;5.93;5.47;;;1.60;99.90;;;;;;4931465;29;20208;-62
2022/12/11 01:25:45;;;;;;;5.00;4.70;;;1.60;99.90;;;;;;4931306;29;20227;-62
2022/12/11 01:28:14;;;;;;;5.87;5.47;;;1.50;99.90;;;;;;4931266;28;20238;-62
2022/12/11 01:30:42;;;;;;;5.60;5.30;;;1.50;99.90;;;;;;4930387;29;20661;-62
2022/12/11 01:33:09;;;;;;;5.30;5.00;;;1.40;99.90;;;;;;4930010;29;20215;-63
2022/12/11 01:35:36;;;;;;;5.57;5.17;;;1.40;99.90;;;;;;4931760;29;20277;-61
2022/12/11 01:38:03;;;;;;;5.70;5.30;;;1.30;99.90;;;;;;4932739;29;20227;-61
2022/12/11 01:40:29;;;;;;;5.57;5.20;;;1.30;99.90;;;;;;4929500;28;20208;-61
2022/12/11 01:42:56;;;;;;;5.83;5.53;;;1.30;99.90;;;;;;4931458;28;20214;-61
2022/12/11 01:45:29;;;;;;;5.68;5.25;;;1.20;99.90;;;;;;4931416;28;20217;-62
2022/12/11 01:48:03;;;;;;;5.95;5.55;;;1.30;99.90;;;;;;4930359;28;20228;-62
2022/12/11 01:50:31;;;;;;;5.93;5.53;;;1.20;99.90;;;;;;4924376;29;20215;-62
2022/12/11 01:52:59;;;;;;;6.40;6.00;;;1.20;99.90;;;;;;4925131;28;20215;-62
2022/12/11 01:55:26;;;;;;;6.20;5.80;;;1.20;99.90;;;;;;4930825;29;20204;-63
2022/12/11 01:57:53;;;;;;;5.20;4.90;;;1.10;99.90;;;;;;4930643;28;20220;-61
2022/12/11 02:00:21;;;;;;;5.77;5.37;;;1.10;99.90;;;;;;4930839;28;20299;-61
2022/12/11 02:02:49;;;;;;;6.00;5.60;;;1.00;99.90;;;;;;4929611;29;20222;-62
2022/12/11 02:05:16;;;;;;;6.00;5.60;;;0.90;99.90;;;;;;4932515;28;20235;-63
2022/12/11 02:07:46;;;;;;;6.40;6.00;;;0.80;99.90;;;;;;4931314;28;20234;-64
2022/12/11 02:10:14;;;;;;;5.80;5.40;;;0.90;99.90;;;;;;4930565;28;20213;-63
2022/12/11 02:12:52;;;;;;;6.22;5.82;;;0.80;99.90;;;;;;4934235;28;20216;-62
2022/12/11 02:15:27;;;;;;;5.50;5.20;;;0.80;99.90;;;;;;4933154;28;20211;-63
2022/12/11 02:18:02;;;;;;;5.60;5.30;;;0.80;99.90;;;;;;4933196;28;20230;-63
2022/12/11 02:20:36;;;;;;;6.18;5.78;;;0.90;99.90;;;;;;4926544;28;20208;-62
2022/12/11 02:23:45;;;;;;;6.00;5.60;;;0.90;99.90;;;;;;4932384;28;20541;-61
2022/12/11 02:26:22;;;;;;;5.53;5.23;;;0.90;99.90;;;;;;4937872;28;20695;-62
2022/12/11 02:28:55;;;;;;;6.27;5.87;;;0.90;99.90;;;;;;4936795;29;21447;-61
2022/12/11 02:31:27;;;;;;;5.60;5.30;;;0.90;99.90;;;;;;4939122;28;20663;-61
2022/12/11 02:34:01;;;;;;;5.70;5.30;;;1.00;99.90;;;;;;4933148;29;20212;-61
2022/12/11 02:36:31;;;;;;;5.80;5.50;;;1.00;99.90;;;;;;4933176;28;20239;-62
2022/12/11 02:39:01;;;;;;;6.10;5.70;;;1.00;99.90;;;;;;4932641;28;20605;-61
2022/12/11 02:41:28;;;;;;;6.20;5.80;;;1.00;99.90;;;;;;4932856;29;20204;-62
2022/12/11 02:43:58;;;;;;;6.10;5.70;;;0.90;99.90;;;;;;4933274;28;20215;-61
2022/12/11 02:46:26;;;;;;;5.93;5.57;;;0.90;99.90;;;;;;4932681;28;20226;-62
2022/12/11 02:48:53;;;;;;;6.30;5.90;;;0.90;99.90;;;;;;4935782;28;20224;-61
2022/12/11 02:51:28;;;;;;;5.53;5.13;;;1.10;99.90;;;;;;4934190;28;20215;-61
2022/12/11 02:53:58;;;;;;;5.90;5.50;;;0.90;99.90;;;;;;4932954;28;20204;-63
2022/12/11 02:56:30;;;;;;;5.70;5.30;;;0.90;99.90;;;;;;4932831;28;20239;-61
2022/12/11 02:59:01;;;;;;;6.00;5.60;;;0.90;99.90;;;;;;4933482;28;20200;-61
2022/12/11 03:01:28;;;;;;;5.77;5.37;;;0.90;99.90;;;;;;4927772;29;20214;-62
2022/12/11 03:03:56;;;;;;;5.47;5.17;;;0.90;99.90;;;;;;4931997;28;20215;-61
2022/12/11 03:06:28;;;;;;;5.63;5.25;;;0.90;99.90;;;;;;4932425;28;20238;-62
2022/12/11 03:08:55;;;;;;;6.10;5.70;;;0.90;99.90;;;;;;4933572;28;20696;-62
2022/12/11 03:11:22;;;;;;;5.50;5.20;;;0.80;99.90;;;;;;4933841;29;20204;-62
2022/12/11 03:13:49;;;;;;;5.68;5.38;;;0.80;99.90;;;;;;4934185;28;20208;-61
2022/12/11 03:16:30;;;;;;;5.73;5.33;;;0.90;99.90;;;;;;4935284;29;20222;-61
2022/12/11 03:19:03;;;;;;;6.17;5.87;;;0.90;99.90;;;;;;4935055;28;20219;-62
2022/12/11 03:21:38;;;;;;;6.20;5.80;;;0.80;99.90;;;;;;4931038;28;20216;-62
2022/12/11 03:24:09;;;;;;;5.90;5.50;;;0.80;99.90;;;;;;4932887;28;20200;-62
2022/12/11 03:26:39;;;;;;;5.57;5.22;;;0.90;99.90;;;;;;4932466;28;20224;-62
2022/12/11 03:29:15;;;;;;;5.97;5.57;;;0.90;99.90;;;;;;4932038;28;20242;-62
2022/12/11 03:31:50;;;;;;;6.20;5.80;;;0.80;99.90;;;;;;4932225;28;20204;-61
2022/12/11 03:34:22;;;;;;;5.77;5.43;;;0.80;99.90;;;;;;4931692;28;20242;-61
2022/12/11 03:36:51;;;;;;;5.43;5.10;;;0.90;99.90;;;;;;4950607;28;20217;-61
2022/12/11 03:39:23;;;;;;;6.40;6.00;;;0.90;99.90;;;;;;4937164;28;20208;-61
2022/12/11 03:41:51;;;;;;;5.77;5.47;;;1.00;99.90;;;;;;4935319;28;20204;-63
2022/12/11 03:44:20;;;;;;;6.40;6.00;;;0.90;99.90;;;;;;4929001;28;20666;-62
2022/12/11 03:46:50;;;;;;;5.80;5.40;;;0.90;99.90;;;;;;4930562;29;20239;-61
2022/12/11 03:49:20;;;;;;;6.00;5.60;;;0.90;99.90;;;;;;4935113;28;20228;-62
2022/12/11 03:51:50;;;;;;;5.90;5.60;;;0.90;99.90;;;;;;4935029;29;20204;-62
2022/12/11 03:54:18;;;;;;;5.73;5.40;;;1.00;99.90;;;;;;4932058;29;20219;-62
2022/12/11 03:56:48;;;;;;;5.73;5.33;;;1.00;99.90;;;;;;4932185;28;20228;-62
2022/12/11 03:59:14;;;;;;;6.07;5.68;;;1.00;99.90;;;;;;4931756;28;20315;-62
2022/12/11 04:01:41;;;;;;;5.57;5.28;;;1.10;99.90;;;;;;4931702;28;20215;-62
2022/12/11 04:04:09;;;;;;;5.77;5.37;;;1.10;99.90;;;;;;4930851;28;20205;-62
2022/12/11 04:06:36;;;;;;;5.67;5.37;;;1.10;99.90;;;;;;4931725;29;20223;-63
2022/12/11 04:09:03;;;;;;;6.30;5.90;;;1.10;99.90;;;;;;4923112;29;20229;-61
2022/12/11 04:11:36;;;;;;;5.93;5.53;;;1.10;99.90;;;;;;4931782;28;20230;-61
2022/12/11 04:16:48;;;;;;;5.17;4.87;;;1.10;99.90;;;;;;4931039;29;20666;-61
2022/12/11 04:24:54;;;;;;;5.63;5.23;;;1.30;99.90;;;;;;4935817;28;20275;-61
2022/12/11 04:30:02;;;;;;;6.17;5.77;;;1.40;99.90;;;;;;4934557;28;20204;-61
2022/12/11 04:32:28;;;;;;;6.10;5.70;;;1.50;99.90;;;;;;4930896;28;20760;-62
2022/12/11 04:34:56;;;;;;;5.40;5.10;;;1.50;99.90;;;;;;4931899;29;20204;-61
2022/12/11 04:37:24;;;;;;;5.30;5.00;;;1.50;99.90;;;;;;4934989;28;20613;-62
2022/12/11 04:39:50;;;;;;;5.13;4.83;;;1.50;99.90;;;;;;4937157;28;20302;-62
2022/12/11 04:42:17;;;;;;;5.90;5.50;;;1.60;99.90;;;;;;4930983;28;20214;-61
2022/12/11 04:44:44;;;;;;;5.78;5.47;;;1.60;99.90;;;;;;4930579;29;20703;-61
2022/12/11 04:47:11;;;;;;;5.53;5.20;;;1.60;99.90;;;;;;4930796;28;20588;-62
2022/12/11 04:49:38;;;;;;;5.63;5.30;;;1.70;99.90;;;;;;4930940;28;20699;-62
2022/12/11 04:52:06;;;;;;;5.23;4.93;;;1.60;99.90;;;;;;4931474;28;20239;-61
2022/12/11 04:54:33;;;;;;;5.37;5.07;;;1.70;99.90;;;;;;4932986;29;20204;-61
2022/12/11 04:57:00;;;;;;;5.93;5.53;;;1.70;99.90;;;;;;4932747;28;20234;-62
2022/12/11 04:59:27;;;;;;;5.30;5.00;;;1.70;99.90;;;;;;4935585;28;20201;-61
2022/12/11 05:01:54;;;;;;;5.20;4.90;;;1.70;99.90;;;;;;4931385;29;20218;-63
2022/12/11 05:04:21;;;;;;;5.73;5.33;;;1.80;99.90;;;;;;4929724;28;20212;-62
2022/12/11 05:06:49;;;;;;;5.53;5.23;;;1.80;99.90;;;;;;4930429;28;20231;-63
2022/12/11 05:09:17;;;;;;;5.33;5.03;;;1.80;99.90;;;;;;4930434;28;20712;-61
2022/12/11 05:11:44;;;;;;;6.57;6.17;;;1.80;99.90;;;;;;4935966;29;20268;-63
2022/12/11 05:14:11;;;;;;;5.65;5.35;;;1.80;99.90;;;;;;4931984;28;20212;-61
2022/12/11 05:16:38;;;;;;;5.27;4.97;;;1.80;99.90;;;;;;4930454;29;20235;-61
2022/12/11 05:19:05;;;;;;;5.63;5.33;;;1.80;99.90;;;;;;4930681;28;20740;-62
2022/12/11 05:21:32;;;;;;;6.27;5.87;;;1.90;99.90;;;;;;4956556;28;20207;-62
2022/12/11 05:23:58;;;;;;;5.97;5.57;;;1.80;99.90;;;;;;4929713;28;20208;-63
2022/12/11 05:26:27;;;;;;;6.35;5.95;;;1.80;99.90;;;;;;4930521;28;20228;-62
2022/12/11 05:28:55;;;;;;;6.65;6.15;;;1.80;99.90;;;;;;4930591;28;20236;-62
2022/12/11 05:31:24;;;;;;;6.70;6.30;;;1.80;99.90;;;;;;4930276;28;20582;-62
2022/12/11 05:33:51;;;;;;;6.43;6.03;;;1.80;99.90;;;;;;4929633;28;20215;-62
2022/12/11 05:36:20;;;;;;;6.53;6.13;;;1.70;99.90;;;;;;4930868;28;20235;-61
2022/12/11 05:38:47;;;;;;;6.93;6.53;;;1.70;99.90;;;;;;4933664;28;20211;-61
2022/12/11 05:41:16;;;;;;;7.45;6.95;;;1.70;99.90;;;;;;4930638;28;20215;-61
2022/12/11 05:43:45;;;;;;;7.67;7.17;;;1.60;99.90;;;;;;4930000;28;20266;-61
2022/12/11 05:46:14;;;;;;;6.93;6.43;;;1.60;99.90;;;;;;4931040;28;20211;-61
2022/12/11 05:48:41;;;;;;;7.23;6.73;;;1.60;99.90;;;;;;4933773;28;20238;-63
2022/12/11 05:51:09;;;;;;;7.07;6.63;;;1.60;99.90;;;;;;4933893;28;20235;-62
2022/12/11 05:53:36;;;;;;;7.00;6.50;;;1.60;99.90;;;;;;4933124;28;20214;-62
2022/12/11 05:56:05;;;;;;;8.33;7.77;;;1.60;99.90;;;;;;4933484;28;20200;-62
2022/12/11 05:58:32;;;;;;;7.37;6.87;;;1.50;99.90;;;;;;4933902;28;20215;-62
2022/12/11 06:01:02;;;;;;;7.00;6.60;;;1.50;99.90;;;;;;4934040;28;20207;-61
2022/12/11 06:03:29;;;;;;;7.57;7.07;;;1.60;99.90;;;;;;4933658;29;20204;-62
2022/12/11 06:05:55;;;;;;;7.18;6.68;;;1.50;99.90;;;;;;4933314;28;20219;-61
2022/12/11 06:08:22;;;;;;;8.10;7.60;;;1.50;99.90;;;;;;4932990;28;20242;-61
2022/12/11 06:10:50;;;;;;;7.60;7.00;;;1.60;99.90;;;;;;4933025;28;20669;-61
2022/12/11 06:13:17;;;;;;;7.40;6.90;;;1.50;99.90;;;;;;4932410;28;20222;-61
2022/12/11 06:15:44;;;;;;;7.63;7.13;;;1.40;99.90;;;;;;4932480;29;20258;-62
2022/12/11 06:18:12;;;;;;;7.13;6.63;;;1.40;99.90;;;;;;4933548;28;20238;-61
2022/12/11 06:20:39;;;;;;;7.17;6.67;;;1.40;99.90;;;;;;4933335;28;20212;-61
2022/12/11 06:23:06;;;;;;;6.90;6.40;;;1.40;99.90;;;;;;4933026;28;20208;-60
2022/12/11 06:25:33;;;;;;;7.17;6.67;;;1.40;99.90;;;;;;4933562;28;20657;-62
2022/12/11 06:28:00;;;;;;;6.20;5.90;;;1.50;99.90;;;;;;4933626;28;20230;-61
2022/12/11 06:30:27;;;;;;;6.97;6.47;;;1.50;99.90;;;;;;4933468;28;20227;-62
2022/12/11 06:32:53;;;;;;;6.30;5.90;;;1.50;99.90;;;;;;4932960;28;20208;-62
2022/12/11 06:35:22;;;;;;;6.10;5.70;;;1.50;99.90;;;;;;4933702;28;20212;-62
2022/12/11 06:37:49;;;;;;;6.50;6.10;;;1.60;99.90;;;;;;4933441;28;20227;-62
2022/12/11 06:40:16;;;;;;;6.93;6.43;;;1.60;99.90;;;;;;4933521;28;20214;-62
2022/12/11 06:42:42;;;;;;;7.00;6.50;;;1.50;99.90;;;;;;4932886;28;20298;-61
2022/12/11 06:45:10;;;;;;;6.83;6.33;;;1.50;99.90;;;;;;4928777;29;20296;-63
2022/12/11 06:47:37;;;;;;;7.20;6.70;;;1.50;99.90;;;;;;4945037;28;20390;-62
2022/12/11 06:50:05;;;;;;;7.40;6.90;;;1.50;99.90;;;;;;4943864;28;20324;-62
2022/12/11 06:52:33;;;;;;;6.50;6.10;;;1.50;99.90;;;;;;4931820;28;20212;-62
2022/12/11 06:54:59;;;;;;;6.85;6.43;;;1.50;99.90;;;;;;4933023;28;20205;-62
2022/12/11 06:57:26;;;;;;;7.07;6.63;;;1.50;99.90;;;;;;4933014;28;20235;-62
2022/12/11 06:59:53;;;;;;;7.23;6.70;;;1.50;99.90;;;;;;4933627;28;20207;-62
2022/12/11 07:02:20;;;;;;;7.07;6.57;;;1.50;99.90;;;;;;4933108;28;20675;-62
2022/12/11 07:04:47;;;;;;;6.67;6.27;;;1.50;99.90;;;;;;4932952;29;20307;-62
2022/12/11 07:07:14;;;;;;;6.93;6.53;;;1.60;99.90;;;;;;4933236;28;20265;-63
2022/12/11 07:09:42;;;;;;;6.57;6.17;;;1.60;99.90;;;;;;4956824;28;20224;-61
2022/12/11 07:12:09;;;;;;;5.90;5.57;;;1.60;99.90;;;;;;4933517;28;20685;-62
2022/12/11 07:14:36;;;;;;;6.00;5.60;;;1.60;99.90;;;;;;4952425;28;20204;-61
2022/12/11 07:17:03;;;;;;;5.63;5.33;;;1.60;99.90;;;;;;4932839;28;20242;-61
2022/12/11 07:19:31;;;;;;;6.10;5.70;;;1.60;99.90;;;;;;4934265;28;20200;-61
2022/12/11 07:21:58;;;;;;;6.23;5.83;;;1.70;99.90;;;;;;4936779;29;20235;-62
2022/12/11 07:24:25;;;;;;;5.83;5.47;;;1.80;99.90;;;;;;4932952;28;20236;-61
2022/12/11 07:26:53;;;;;;;6.03;5.63;;;1.70;99.90;;;;;;4934706;28;20665;-62
2022/12/11 07:29:20;;;;;;;6.03;5.63;;;1.70;99.90;;;;;;4937173;28;20232;-61
2022/12/11 07:31:47;;;;;;;6.30;5.90;;;1.70;99.90;;;;;;4932897;28;20207;-61
2022/12/11 07:34:13;;;;;;;6.00;5.60;;;1.50;99.90;;;;;;4932211;28;20212;-61
2022/12/11 07:36:41;;;;;;;5.40;5.10;;;1.40;99.90;;;;;;4935839;28;20220;-62
2022/12/11 07:39:07;;;;;;;5.83;5.53;;;1.50;99.90;;;;;;4932754;28;20227;-62
2022/12/11 07:41:35;;;;;;;6.30;5.90;;;1.40;99.90;;;;;;4932461;28;20752;-62
2022/12/11 07:44:03;;;;;;;6.20;5.80;;;1.40;99.90;;;;;;4926713;28;20205;-62
2022/12/11 07:46:32;;;;;;;6.30;5.93;;;1.30;99.90;;;;;;4927372;28;20224;-63
2022/12/11 07:49:00;;;;;;;6.73;6.33;;;1.20;99.90;;;;;;4933087;29;20243;-63
2022/12/11 07:51:29;;;;;;;6.03;5.65;;;1.10;99.90;;;;;;4932598;28;20204;-61
2022/12/11 07:53:58;;;;;;;6.70;6.30;;;1.20;99.90;;;;;;4932491;28;20555;-61
2022/12/11 07:56:26;;;;;;;6.47;6.07;;;1.30;99.90;;;;;;4934733;28;20224;-62
2022/12/11 07:58:53;;;;;;;7.07;6.57;;;1.20;99.90;;;;;;4934376;28;20227;-62
2022/12/11 08:01:23;;;;;;;6.57;6.07;;;1.20;99.90;;;;;;4932802;28;20212;-61
2022/12/11 08:03:50;;;;;;;6.68;6.25;;;1.10;99.90;;;;;;4932284;28;20208;-61
2022/12/11 08:06:20;;;;;;;6.93;6.43;;;1.00;99.90;;;;;;4932245;28;20212;-62
2022/12/11 08:08:47;;;;;;;6.43;6.03;;;1.00;99.90;;;;;;4933805;28;20219;-63
2022/12/11 08:11:15;;;;;;;6.23;5.83;;;1.00;99.90;;;;;;4936568;28;20210;-61
2022/12/11 08:13:42;;;;;;;7.03;6.53;;;1.10;99.90;;;;;;4935043;28;20387;-62
2022/12/11 08:16:12;;;;;;;6.83;6.43;;;1.30;99.90;;;;;;4932084;28;20230;-62
2022/12/11 08:18:41;;;;;;;6.40;6.00;;;1.30;99.90;;;;;;4931380;28;20230;-62
2022/12/11 08:21:09;;;;;;;5.97;5.57;;;1.40;99.90;;;;;;4938500;28;20203;-61
2022/12/11 08:23:36;;;;;;;7.23;6.63;;;1.50;99.90;;;;;;4931940;29;20204;-62
2022/12/11 08:26:04;;;;;;;5.85;5.53;;;1.40;99.90;;;;;;4932080;28;20214;-63
2022/12/11 08:28:31;;;;;;;5.93;5.53;;;1.40;99.90;;;;;;4924998;28;20583;-62
2022/12/11 08:30:59;;;;;;;6.73;6.33;;;1.50;99.90;;;;;;4932969;28;20230;-62
2022/12/11 08:33:26;;;;;;;6.40;5.90;;;1.40;99.90;;;;;;4933406;28;20239;-62
2022/12/11 08:35:54;;;;;;;6.05;5.65;;;1.40;99.90;;;;;;4933856;28;20204;-62
2022/12/11 08:38:20;;;;;;;6.20;5.80;;;1.50;99.90;;;;;;4932994;28;20232;-61
2022/12/11 08:40:47;;;;;;;4.93;4.63;;;1.60;99.90;;;;;;4932834;28;20204;-61
2022/12/11 08:43:14;;;;;;;5.03;4.73;;;1.80;99.90;;;;;;4930456;28;20673;-61
2022/12/11 08:45:41;;;;;;;5.83;5.43;;;2.00;99.90;;;;;;4926769;28;20218;-61
2022/12/11 08:48:08;;;;;;;5.40;5.10;;;2.10;99.90;;;;;;4930267;28;20716;-61
2022/12/11 08:50:34;;;;;;;5.27;4.97;;;2.20;99.90;;;;;;4928585;28;20228;-62
2022/12/11 08:53:02;;;;;;;5.60;5.30;;;2.30;99.90;;;;;;4936195;28;20214;-61
2022/12/11 08:55:29;;;;;;;5.83;5.43;;;2.30;99.90;;;;;;4947713;28;20287;-61
2022/12/11 08:57:56;;;;;;;5.87;5.47;;;2.30;99.90;;;;;;4932233;28;20242;-61
2022/12/11 09:00:23;;;;;;;5.67;5.27;;;2.30;99.90;;;;;;4930952;28;20247;-61
2022/12/11 09:02:50;;;;;;;5.60;5.20;;;2.40;99.90;;;;;;4923648;29;20216;-62
2022/12/11 09:05:20;;;;;;;5.80;5.40;;;2.40;99.90;;;;;;4927959;28;20589;-62
2022/12/11 09:07:47;;;;;;;6.50;6.10;;;2.40;99.90;;;;;;4923340;29;20224;-62
2022/12/11 09:10:16;;;;;;;6.07;5.70;;;2.40;99.90;;;;;;4933282;28;20235;-62
2022/12/11 09:12:45;;;;;;;5.20;4.90;;;2.50;99.90;;;;;;4932533;29;20223;-62
2022/12/11 09:15:12;;;;;;;5.50;5.20;;;2.50;99.90;;;;;;4938773;28;20787;-61
2022/12/11 09:17:39;;;;;;;5.10;4.80;;;2.50;99.90;;;;;;4933219;28;20238;-63
2022/12/11 09:20:06;;;;;;;5.10;4.80;;;2.50;99.90;;;;;;4933253;28;20773;-63
2022/12/11 09:22:33;;;;;;;5.40;5.03;;;2.60;99.90;;;;;;4937361;28;20207;-62
2022/12/11 09:25:00;;;;;;;5.13;4.83;;;2.60;99.90;;;;;;4933607;29;20208;-63
2022/12/11 09:27:29;;;;;;;5.00;4.70;;;2.70;99.90;;;;;;4933830;28;20590;-61
2022/12/11 09:29:55;;;;;;;5.43;5.13;;;2.70;99.90;;;;;;4933768;28;20234;-62
2022/12/11 09:32:22;;;;;;;5.57;5.22;;;2.70;99.90;;;;;;4931713;28;20204;-61
2022/12/11 09:34:51;;;;;;;5.43;5.13;;;2.70;99.90;;;;;;4933838;29;20204;-62
2022/12/11 09:37:17;;;;;;;5.63;5.23;;;2.80;99.90;;;;;;4932447;28;20231;-63
2022/12/11 09:39:44;;;;;;;5.27;4.97;;;2.80;99.90;;;;;;4932494;28;20236;-62
2022/12/11 09:42:18;;;;;;;4.83;4.53;;;2.70;99.90;;;;;;4933736;28;20219;-62
2022/12/11 09:44:50;;;;;;;4.00;3.80;;;2.80;99.90;;;;;;4923924;28;20210;-62
2022/12/11 09:47:23;;;;;;;4.70;4.40;;;2.90;99.90;;;;;;4933580;28;20238;-62
2022/12/11 09:49:57;;;;;;;5.00;4.70;;;2.90;99.90;;;;;;4933336;28;20223;-62
2022/12/11 09:52:31;;;;;;;4.10;3.90;;;2.90;99.90;;;;;;4932843;28;20223;-62
2022/12/11 09:55:01;;;;;;;4.77;4.47;;;3.00;99.90;;;;;;4936864;28;20741;-62
2022/12/11 09:57:45;;;;;;;4.17;3.93;;;3.10;99.90;;;;;;4933201;29;20945;-62
2022/12/11 10:00:22;;;;;;;4.40;4.10;;;3.10;99.90;;;;;;4934069;28;20208;-61
2022/12/11 10:03:21;;;;;;;4.40;4.17;;;3.20;99.90;;;;;;4930635;29;20204;-63
2022/12/11 10:05:55;;;;;;;4.77;4.47;;;3.20;99.90;;;;;;4941658;29;20211;-62
2022/12/11 10:08:31;;;;;;;4.27;4.07;;;3.30;99.90;;;;;;4933586;28;20228;-62
2022/12/11 10:11:05;;;;;;;4.23;3.97;;;3.20;99.90;;;;;;4933434;29;20262;-62
2022/12/11 10:13:42;;;;;;;4.60;4.30;;;3.30;99.90;;;;;;4925498;29;20218;-61
2022/12/11 10:16:18;;;;;;;4.35;4.05;;;3.40;99.90;;;;;;4934049;29;20220;-63
2022/12/11 10:18:46;;;;;;;4.20;4.00;;;3.40;99.90;;;;;;4930093;29;20214;-61
2022/12/11 10:21:15;;;;;;;4.93;4.63;;;3.30;99.90;;;;;;4931897;29;20208;-61
2022/12/11 10:23:50;;;;;;;4.37;4.17;;;3.30;99.90;;;;;;4930077;29;20561;-61
2022/12/11 10:26:18;;;;;;;4.07;3.87;;;3.20;99.90;;;;;;4929020;28;20844;-62
2022/12/11 10:28:45;;;;;;;4.43;4.13;;;3.10;99.90;;;;;;4930811;28;20676;-63
2022/12/11 10:31:18;;;;;;;3.80;3.60;;;3.20;99.90;;;;;;4930432;29;20227;-63
2022/12/11 10:33:56;;;;;;;4.70;4.40;;;3.40;99.90;;;;;;4923416;29;20205;-63
2022/12/11 10:36:28;;;;;;;4.30;4.07;;;3.40;99.90;;;;;;4919793;28;20282;-63
2022/12/11 10:38:55;;;;;;;4.20;4.00;;;3.20;99.90;;;;;;4918901;29;20213;-62
2022/12/11 10:41:24;;;;;;;4.23;4.03;;;3.10;99.90;;;;;;4918957;29;20240;-62
2022/12/11 10:43:53;;;;;;;4.60;4.30;;;3.10;99.90;;;;;;4923996;28;20282;-62
2022/12/11 10:46:23;;;;;;;4.77;4.47;;;3.00;99.90;;;;;;4926907;28;20248;-62
2022/12/11 10:48:53;;;;;;;4.77;4.47;;;3.00;99.90;;;;;;4919644;29;20866;-61
2022/12/11 10:51:22;;;;;;;4.23;4.03;;;3.00;99.90;;;;;;4913754;28;20232;-61
2022/12/11 10:53:52;;;;;;;4.37;4.07;;;3.00;99.90;;;;;;4916647;29;20208;-61
2022/12/11 10:56:26;;;;;;;4.07;3.87;;;3.10;99.90;;;;;;4931842;29;20213;-61
2022/12/11 10:58:53;;;;;;;4.57;4.28;;;3.20;99.90;;;;;;4934487;28;20212;-61
2022/12/11 11:01:23;;;;;;;4.43;4.20;;;3.30;99.90;;;;;;4919825;28;20214;-61
2022/12/11 11:03:58;;;;;;;4.90;4.60;;;3.30;99.90;;;;;;4923131;28;20227;-61
2022/12/11 11:06:26;;;;;;;4.50;4.20;;;3.40;99.90;;;;;;4921033;29;20846;-61
2022/12/11 11:08:54;;;;;;;4.17;3.97;;;3.50;99.90;;;;;;4922163;28;20703;-61
2022/12/11 11:11:25;;;;;;;3.97;3.77;;;3.50;99.90;;;;;;4920775;29;20315;-61
2022/12/11 11:14:04;;;;;;;4.37;4.07;;;3.50;99.90;;;;;;4924683;29;20204;-61
2022/12/11 11:16:35;;;;;;;3.80;3.60;;;3.60;99.90;;;;;;4924615;28;20239;-61
2022/12/11 11:19:02;;;;;;;3.53;3.33;;;3.70;99.90;;;;;;4925876;29;20220;-62
2022/12/11 11:21:30;;;;;;;3.60;3.40;;;3.60;99.90;;;;;;4923895;29;20200;-62
2022/12/11 11:23:57;;;;;;;3.83;3.53;;;3.70;99.90;;;;;;4921534;29;20210;-62
2022/12/11 11:26:24;;;;;;;3.70;3.50;;;3.80;99.90;;;;;;4925895;28;20235;-64
2022/12/11 11:28:55;;;;;;;3.70;3.50;;;3.80;99.90;;;;;;4920967;29;20215;-62
2022/12/11 11:31:31;;;;;;;3.80;3.60;;;3.80;99.90;;;;;;4916704;28;20227;-63
2022/12/11 11:34:02;;;;;;;4.20;4.00;;;3.80;99.90;;;;;;4929928;28;20204;-62
2022/12/11 11:36:32;;;;;;;4.83;4.53;;;3.60;99.90;;;;;;4929588;28;20220;-61
2022/12/11 11:39:13;;;;;;;4.53;4.27;;;3.60;99.90;;;;;;4926832;28;20650;-62
2022/12/11 11:41:49;;;;;;;4.77;4.47;;;3.30;99.90;;;;;;4926415;29;20200;-63
2022/12/11 11:44:33;;;;;;;4.87;4.57;;;2.90;99.90;;;;;;4932592;28;20247;-62
2022/12/11 11:47:07;;;;;;;5.30;5.00;;;2.50;99.90;;;;;;4923032;28;20231;-62
2022/12/11 11:49:49;;;;;;;4.90;4.60;;;2.50;99.90;;;;;;4924343;28;20222;-64
2022/12/11 11:52:29;;;;;;;4.57;4.27;;;2.50;99.90;;;;;;4921698;28;20213;-64
2022/12/11 11:55:09;;;;;;;4.57;4.27;;;2.40;99.90;;;;;;4923864;28;20205;-61
2022/12/11 11:57:43;;;;;;;4.40;4.20;;;2.40;99.90;;;;;;4931775;28;20227;-62
2022/12/11 12:00:19;;;;;;;4.87;4.57;;;2.50;99.90;;;;;;4933110;28;20207;-63
2022/12/11 12:02:56;;;;;;;4.70;4.40;;;2.40;99.90;;;;;;4931658;28;20579;-62
2022/12/11 12:05:30;;;;;;;4.80;4.50;;;2.40;99.90;;;;;;4932372;28;20222;-62
2022/12/11 12:08:09;;;;;;;4.13;3.92;;;2.50;99.90;;;;;;4931908;28;20237;-64
2022/12/11 12:10:49;;;;;;;4.70;4.40;;;2.70;99.90;;;;;;4920946;28;20224;-62
2022/12/11 12:13:32;;;;;;;4.90;4.60;;;2.60;99.90;;;;;;4927956;28;20239;-64
2022/12/11 12:16:04;;;;;;;4.60;4.30;;;2.70;99.90;;;;;;4922560;29;20219;-62
2022/12/11 12:18:42;;;;;;;5.30;4.90;;;2.90;99.90;;;;;;4923159;29;20208;-63
2022/12/11 12:21:21;;;;;;;6.67;6.27;;;2.80;99.90;;;;;;4923986;28;20211;-63
2022/12/11 12:24:15;;;;;;;5.60;5.20;;;2.70;99.90;;;;;;4918730;29;20213;-62
2022/12/11 12:26:52;;;;;;;4.30;4.10;;;2.80;99.90;;;;;;4920267;29;20282;-63
2022/12/11 12:29:30;;;;;;;4.93;4.63;;;2.80;99.90;;;;;;4923943;29;20201;-62
2022/12/11 12:32:09;;;;;;;4.60;4.30;;;2.80;99.90;;;;;;4921855;28;20228;-63
2022/12/11 12:34:58;;;;;;;4.47;4.17;;;2.90;99.90;;;;;;4923083;28;20728;-62
2022/12/11 12:37:45;;;;;;;4.43;4.18;;;2.80;99.90;;;;;;4923869;28;20256;-63
2022/12/11 12:40:20;;;;;;;4.20;4.00;;;2.70;99.90;;;;;;4928830;28;20239;-64
2022/12/11 12:42:56;;;;;;;4.40;4.20;;;2.90;99.90;;;;;;4922978;29;20707;-63
2022/12/11 12:45:32;;;;;;;4.63;4.33;;;3.00;99.90;;;;;;4920667;29;20307;-64
2022/12/11 12:48:00;;;;;;;4.33;4.10;;;3.00;99.90;;;;;;4918117;28;20319;-63
2022/12/11 12:50:41;;;;;;;4.23;4.00;;;3.10;99.90;;;;;;4925315;28;20323;-63
2022/12/11 12:53:18;;;;;;;4.47;4.27;;;3.20;99.90;;;;;;4922970;28;20208;-63
2022/12/11 12:55:47;;;;;;;4.30;4.00;;;3.20;99.90;;;;;;4920546;29;20205;-63
2022/12/11 12:58:30;;;;;;;4.37;4.17;;;3.30;99.90;;;;;;4933171;28;20240;-63
2022/12/11 13:01:10;;;;;;;4.37;4.17;;;3.30;99.90;;;;;;4936761;29;20204;-64
2022/12/11 13:03:51;;;;;;;4.20;3.90;;;3.20;99.90;;;;;;4926810;28;20205;-63
2022/12/11 13:06:30;;;;;;;4.53;4.33;;;3.30;99.90;;;;;;4920832;28;20662;-61
2022/12/11 13:09:16;;;;;;;4.80;4.50;;;3.30;99.90;;;;;;4921251;29;20636;-62
2022/12/11 13:11:43;;;;;;;4.67;4.37;;;3.30;99.90;;;;;;4918314;29;20332;-64
2022/12/11 13:14:27;;;;;;;4.47;4.20;;;3.40;99.90;;;;;;4923227;28;20204;-63
2022/12/11 13:17:07;;;;;;;4.80;4.50;;;3.60;99.90;;;;;;4918533;28;20243;-63
2022/12/11 13:19:35;;;;;;;4.17;3.97;;;3.60;99.90;;;;;;4923223;29;20584;-63
2022/12/11 13:22:17;;;;;;;3.50;3.30;;;3.80;99.90;;;;;;4917724;29;20201;-64
2022/12/11 13:24:48;;;;;;;3.70;3.50;;;3.90;99.90;;;;;;4923914;28;20563;-65